Terminal Aerodrome Forecast
Issued by NWS

Home | Current Version | Previous Version | Graphics & Text | Print | Product List | Glossary On
Versions: 1 2 3 4 5 6 7 8 9 10 11 12 13 14 15 16 17 18 19
000
FTUS41 KCLE 240100 AAA
TAFFDY
TAF AMD
KFDY 240106Z 2401/2424 06012KT P6SM -SN SCT045 OVC080
     FM240400 05007KT P6SM SCT045
     FM241400 08008KT P6SM SCT250
     FM241800 08008KT P6SM SKC=

USA.gov is the U.S. government's official web portal to all federal, state and local government web resources and services.